Time;durP1;ratioP1;P1;durP2;ratioP2;P2;SDS_P1;SDS_P2;PMS_P1;PMS_P2;Temp;Humidity;BMP_temperature;BMP_pressure;BME280_temperature;BME280_humidity;BME280_pressure;Samples;Min_cycle;Max_cycle;Signal;HPM_P1;HPM_P2
2022/09/12 00:00:40;;;;;;;13.02;6.15;;;16.00;99.90;;;16.21;100.00;101141.00;5186396;28;20061;-72
2022/09/12 00:03:12;;;;;;;14.27;5.88;;;16.00;99.90;;;16.20;100.00;101135.72;5201617;28;20413;-73
2022/09/12 00:05:47;;;;;;;16.48;7.00;;;16.00;99.90;;;16.16;100.00;101131.25;5186279;28;20053;-74
2022/09/12 00:08:19;;;;;;;14.45;6.32;;;15.90;99.90;;;16.13;100.00;101133.84;5201435;28;20049;-72
2022/09/12 00:10:51;;;;;;;15.35;6.78;;;15.90;99.90;;;16.13;100.00;101133.84;5201421;28;20061;-72
2022/09/12 00:13:23;;;;;;;15.95;7.05;;;15.90;99.90;;;16.11;100.00;101138.22;5201477;28;20056;-73
2022/09/12 00:15:56;;;;;;;14.80;6.18;;;15.90;99.90;;;16.06;100.00;101140.75;5201265;28;20470;-73
2022/09/12 00:18:28;;;;;;;14.60;6.53;;;15.80;99.90;;;16.04;100.00;101133.66;5186097;28;20038;-73
2022/09/12 00:21:04;;;;;;;12.82;5.65;;;15.80;99.90;;;16.02;100.00;101129.28;5186041;28;20406;-73
2022/09/12 00:23:37;;;;;;;12.20;5.63;;;15.80;99.90;;;15.99;100.00;101128.34;5185993;28;20042;-73
2022/09/12 00:26:09;;;;;;;12.77;5.72;;;15.80;99.90;;;15.92;100.00;101127.34;5186023;28;20129;-73
2022/09/12 00:28:42;;;;;;;12.65;6.07;;;15.70;99.90;;;15.87;100.00;101133.38;5184639;28;20041;-74
2022/09/12 00:31:17;;;;;;;14.75;6.57;;;15.70;99.90;;;15.83;100.00;101129.78;5201157;28;20536;-73
2022/09/12 00:33:50;;;;;;;14.77;6.20;;;15.60;99.90;;;15.80;100.00;101132.38;5184679;28;20053;-75
2022/09/12 00:36:26;;;;;;;16.40;6.68;;;15.60;99.90;;;15.80;100.00;101124.50;5185799;28;20054;-73
2022/09/12 00:38:59;;;;;;;11.65;5.85;;;15.60;99.90;;;15.82;100.00;101130.66;5185536;28;20041;-73
2022/09/12 00:41:34;;;;;;;12.75;5.60;;;15.60;99.90;;;15.83;100.00;101126.28;5184352;28;20041;-73
2022/09/12 00:44:43;;;;;;;14.88;6.32;;;15.60;99.90;;;15.82;100.00;101125.41;5185777;28;20128;-74
2022/09/12 00:47:22;;;;;;;14.48;6.50;;;15.60;99.90;;;15.81;100.00;101117.50;5184729;28;20042;-73
2022/09/12 00:50:04;;;;;;;15.27;5.93;;;15.60;99.90;;;15.77;100.00;101111.28;5185882;28;20125;-73
2022/09/12 00:52:42;;;;;;;14.05;6.07;;;15.60;99.90;;;15.71;100.00;101111.16;5185840;28;20052;-73
2022/09/12 00:55:19;;;;;;;13.85;6.20;;;15.60;99.90;;;15.68;100.00;101111.13;5185707;28;20042;-74
2022/09/12 00:57:58;;;;;;;14.13;6.00;;;15.50;99.90;;;15.67;100.00;101109.34;5185133;28;20056;-72
2022/09/12 01:00:31;;;;;;;14.13;6.28;;;15.50;99.90;;;15.65;100.00;101109.34;5185160;28;20050;-72
2022/09/12 01:03:07;;;;;;;13.20;5.72;;;15.50;99.90;;;15.64;100.00;101115.41;5185112;28;20041;-74
2022/09/12 01:05:45;;;;;;;13.80;6.38;;;15.40;99.90;;;15.65;100.00;101114.59;5185408;28;20077;-74
2022/09/12 01:08:19;;;;;;;13.88;6.03;;;15.50;99.90;;;15.66;100.00;101108.47;5185286;28;20034;-75
2022/09/12 01:10:52;;;;;;;13.77;6.47;;;15.40;99.90;;;15.64;100.00;101109.28;5184866;28;20056;-73
2022/09/12 01:13:24;;;;;;;14.13;5.40;;;15.40;99.90;;;15.62;100.00;101109.25;5200394;28;20050;-74
2022/09/12 01:15:56;;;;;;;13.18;6.00;;;15.40;99.90;;;15.60;100.00;101107.44;5185055;28;20499;-71
2022/09/12 01:18:42;;;;;;;13.45;6.18;;;15.40;99.90;;;15.58;100.00;101098.59;5184882;28;20042;-72
2022/09/12 01:21:29;;;;;;;15.40;5.78;;;15.40;99.90;;;15.53;100.00;101103.81;5183687;28;20058;-73
2022/09/12 01:24:48;;;;;;;13.52;6.25;;;15.30;99.90;;;15.52;100.00;101103.75;5200448;28;20499;-74
2022/09/12 01:27:56;;;;;;;17.58;7.30;;;15.30;99.90;;;15.50;100.00;101108.09;5183580;28;20034;-74
2022/09/12 01:30:48;;;;;;;13.65;5.63;;;15.30;99.90;;;15.48;100.00;101108.06;5184805;28;20558;-75
2022/09/12 01:33:38;;;;;;;13.65;5.65;;;15.30;99.90;;;15.46;100.00;101104.53;5185068;28;20108;-73
2022/09/12 01:36:36;;;;;;;11.77;5.43;;;15.20;99.90;;;15.44;100.00;101107.09;5184524;28;20050;-72
2022/09/12 01:39:24;;;;;;;13.05;6.22;;;15.20;99.90;;;15.39;100.00;101093.03;5184698;28;20048;-75
2022/09/12 01:42:09;;;;;;;11.80;5.43;;;15.20;99.90;;;15.33;100.00;101103.41;5183715;28;20045;-73
2022/09/12 01:44:50;;;;;;;15.02;6.50;;;15.20;99.90;;;15.31;100.00;101089.34;5199855;28;20140;-73
2022/09/12 01:47:34;;;;;;;13.57;6.13;;;15.10;99.90;;;15.32;100.00;101099.00;5184640;28;20053;-73
2022/09/12 01:50:10;;;;;;;15.00;6.53;;;15.10;99.90;;;15.33;100.00;101092.91;5199488;28;20049;-72
2022/09/12 01:52:48;;;;;;;15.75;5.75;;;15.20;99.90;;;15.33;100.00;101090.28;5184323;28;20057;-72
2022/09/12 01:55:25;;;;;;;13.52;6.35;;;15.20;99.90;;;15.34;100.00;101093.78;5184509;28;20056;-74
2022/09/12 01:58:04;;;;;;;13.88;6.80;;;15.20;99.90;;;15.33;100.00;101085.03;5184533;28;20041;-74
2022/09/12 02:00:46;;;;;;;12.07;5.30;;;15.20;99.90;;;15.33;100.00;101092.91;5184606;28;20046;-74
2022/09/12 02:03:26;;;;;;;13.38;6.15;;;15.20;99.90;;;15.33;100.00;101090.28;5184689;28;20042;-72
2022/09/12 02:06:07;;;;;;;11.63;5.72;;;15.20;99.90;;;15.31;100.00;101078.81;5183988;28;20054;-73
2022/09/12 02:08:46;;;;;;;13.50;6.20;;;15.10;99.90;;;15.30;100.00;101081.44;5184378;28;20049;-73
2022/09/12 02:11:19;;;;;;;12.05;4.93;;;15.10;99.90;;;15.29;100.00;101075.28;5183232;28;20142;-73
2022/09/12 02:13:56;;;;;;;12.35;5.53;;;15.10;99.90;;;15.29;100.00;101077.91;5184820;28;20068;-73
2022/09/12 02:16:34;;;;;;;12.48;5.82;;;15.10;99.90;;;15.25;100.00;101078.69;5184189;28;20073;-73
2022/09/12 02:19:14;;;;;;;11.77;5.30;;;15.10;99.90;;;15.23;100.00;101069.91;5184028;28;20144;-72
2022/09/12 02:21:52;;;;;;;11.68;5.22;;;15.10;99.90;;;15.22;100.00;101072.53;5182857;28;20137;-72
2022/09/12 02:24:31;;;;;;;11.95;5.70;;;15.10;99.90;;;15.22;100.00;101078.66;5184137;28;20053;-74
2022/09/12 02:27:08;;;;;;;12.43;5.45;;;15.10;99.90;;;15.20;100.00;101083.00;5183818;28;20056;-74
2022/09/12 02:29:41;;;;;;;12.57;5.90;;;15.00;99.90;;;15.17;100.00;101081.19;5184106;28;20503;-73
2022/09/12 02:32:25;;;;;;;13.00;5.68;;;15.00;99.90;;;15.13;100.00;101073.22;5183974;28;20049;-74
2022/09/12 02:35:07;;;;;;;11.48;5.82;;;14.90;99.90;;;15.10;100.00;101067.91;5184054;28;20041;-73
2022/09/12 02:37:55;;;;;;;9.38;4.50;;;14.90;99.90;;;15.09;100.00;101076.63;5183570;28;20046;-73
2022/09/12 02:40:30;;;;;;;13.95;6.47;;;14.90;99.90;;;15.09;100.00;101071.38;5187153;28;20098;-74
2022/09/12 02:43:05;;;;;;;12.23;5.63;;;14.90;99.90;;;15.09;100.00;101067.00;5187848;28;20137;-73
2022/09/12 02:45:37;;;;;;;12.60;5.38;;;14.90;99.90;;;15.09;100.00;101067.00;5186974;28;20104;-73
2022/09/12 02:48:15;;;;;;;11.27;5.28;;;14.90;99.90;;;15.10;100.00;101062.66;5203427;28;20065;-74
2022/09/12 02:50:49;;;;;;;11.23;5.38;;;14.90;99.90;;;15.10;100.00;101060.03;5187732;28;20044;-73
2022/09/12 02:53:22;;;;;;;11.63;4.90;;;14.90;99.90;;;15.06;100.00;101056.47;5203077;28;20049;-74
2022/09/12 02:55:54;;;;;;;12.35;5.55;;;14.90;99.90;;;15.02;100.00;101059.88;5187535;28;20046;-73
2022/09/12 02:58:30;;;;;;;11.00;4.85;;;14.90;99.90;;;15.01;100.00;101055.47;5187800;28;20391;-74
2022/09/12 03:01:12;;;;;;;11.25;5.47;;;14.80;99.90;;;14.98;100.00;101051.88;5187669;28;20060;-75
2022/09/12 03:04:10;;;;;;;12.25;5.32;;;14.80;99.90;;;14.98;100.00;101049.25;5187663;28;20049;-74
2022/09/12 03:06:58;;;;;;;12.85;4.82;;;14.80;99.90;;;14.97;100.00;101050.13;5187619;28;20502;-73
2022/09/12 03:09:40;;;;;;;12.50;5.15;;;14.80;99.90;;;14.95;100.00;101039.59;5187304;28;20399;-73
2022/09/12 03:12:30;;;;;;;11.02;4.97;;;14.80;99.90;;;14.93;100.00;101039.56;5187494;28;20046;-73
2022/09/12 03:15:26;;;;;;;12.70;5.15;;;14.80;99.90;;;14.96;100.00;101051.88;5187415;28;20050;-74
2022/09/12 03:18:16;;;;;;;11.60;5.32;;;14.80;99.90;;;14.93;100.00;101047.44;5187234;28;20052;-73
2022/09/12 03:21:02;;;;;;;11.85;5.53;;;14.80;99.90;;;14.92;100.00;101043.03;5187321;28;20065;-75
2022/09/12 03:23:42;;;;;;;11.68;5.78;;;14.80;99.90;;;14.91;100.00;101049.13;5187335;28;20052;-74
2022/09/12 03:26:21;;;;;;;12.63;5.18;;;14.80;99.90;;;14.91;100.00;101057.00;5187185;28;20052;-72
2022/09/12 03:28:55;;;;;;;12.90;5.60;;;14.70;99.90;;;14.90;100.00;101055.25;5202365;28;20048;-73
2022/09/12 03:31:27;;;;;;;;;;;14.80;99.90;;;14.89;100.00;101053.47;5187378;28;20120;-74
2022/09/12 03:34:00;;;;;;;12.65;5.70;;;14.80;99.90;;;14.88;100.00;101051.72;5186892;28;19921;-73
2022/09/12 03:36:33;;;;;;;11.40;5.78;;;14.70;99.90;;;14.87;100.00;101054.31;5186992;28;20499;-73
2022/09/12 03:39:06;;;;;;;9.73;4.55;;;14.70;99.90;;;14.86;100.00;101058.63;5186749;28;20048;-75
2022/09/12 03:41:38;;;;;;;14.65;6.03;;;14.70;99.90;;;14.83;100.00;101053.34;5202017;28;20521;-74
2022/09/12 03:44:10;;;;;;;11.77;5.25;;;14.70;99.90;;;14.82;100.00;101054.19;5186837;28;20507;-74
2022/09/12 03:46:43;;;;;;;11.15;5.18;;;14.70;99.90;;;14.81;100.00;101057.69;5186902;28;20045;-74
2022/09/12 03:49:16;;;;;;;11.25;5.32;;;14.70;99.90;;;14.82;100.00;101062.06;5184866;28;20054;-73
2022/09/12 03:51:48;;;;;;;10.27;5.03;;;14.70;99.90;;;14.83;100.00;101053.34;5186620;28;20050;-74
2022/09/12 03:54:22;;;;;;;11.10;5.05;;;14.70;99.90;;;14.86;100.00;101050.75;5186714;28;20046;-72
2022/09/12 03:56:54;;;;;;;10.68;5.05;;;14.70;99.90;;;14.84;100.00;101055.09;5185312;28;20054;-72
2022/09/12 03:59:27;;;;;;;11.38;5.25;;;14.70;99.90;;;14.84;100.00;101054.22;5184982;28;20038;-74
2022/09/12 04:01:59;;;;;;;11.20;4.97;;;14.70;99.90;;;14.82;100.00;101054.19;5186040;28;20525;-74
2022/09/12 04:04:31;;;;;;;10.15;4.70;;;14.70;99.90;;;14.82;100.00;101051.56;5186118;28;20042;-74
2022/09/12 04:07:03;;;;;;;11.63;4.47;;;14.70;99.90;;;14.82;100.00;101051.56;5184559;28;20127;-73
2022/09/12 04:09:37;;;;;;;8.38;3.95;;;14.70;99.90;;;14.80;100.00;101042.78;5186029;28;20048;-74
2022/09/12 04:12:09;;;;;;;9.25;4.30;;;14.70;99.90;;;14.81;100.00;101048.94;5185815;28;20384;-73
2022/09/12 04:14:41;;;;;;;10.38;4.72;;;14.70;99.90;;;14.79;100.00;101040.09;5185995;28;20042;-73
2022/09/12 04:17:14;;;;;;;12.13;4.97;;;14.60;99.90;;;14.77;100.00;101039.19;5185507;28;20053;-73
2022/09/12 04:19:46;;;;;;;9.95;4.63;;;14.60;99.90;;;14.76;100.00;101043.56;5185471;28;20050;-74
2022/09/12 04:22:19;;;;;;;11.70;4.82;;;14.60;99.90;;;14.74;100.00;101042.66;5185604;28;20458;-74
2022/09/12 04:24:53;;;;;;;10.20;4.57;;;14.60;99.90;;;14.71;100.00;101039.94;5185832;28;20049;-73
2022/09/12 04:27:25;;;;;;;11.88;4.75;;;14.60;99.90;;;14.70;100.00;101037.28;5185484;28;20046;-75
2022/09/12 04:29:59;;;;;;;10.55;4.60;;;14.50;99.90;;;14.65;100.00;101034.56;5185531;28;20045;-73
2022/09/12 04:32:31;;;;;;;9.13;4.35;;;14.50;99.90;;;14.59;100.00;101037.06;5185745;28;20523;-74
2022/09/12 04:35:04;;;;;;;10.00;4.68;;;14.40;99.90;;;14.54;100.00;101038.69;5185149;28;20056;-75
2022/09/12 04:37:36;;;;;;;10.57;5.03;;;14.40;99.90;;;14.48;100.00;101035.94;5200696;28;20053;-73
2022/09/12 04:40:10;;;;;;;9.13;4.30;;;14.30;99.90;;;14.44;100.00;101036.69;5200086;28;20173;-74
2022/09/12 04:42:43;;;;;;;10.52;5.00;;;14.30;99.90;;;14.41;100.00;101037.50;5185233;28;20054;-74
2022/09/12 04:45:16;;;;;;;8.05;3.88;;;14.30;99.90;;;14.39;100.00;101034.81;5185274;28;20050;-74
2022/09/12 04:47:48;;;;;;;9.82;4.15;;;14.20;99.90;;;14.36;100.00;101034.78;5185051;28;20060;-74
2022/09/12 04:50:20;;;;;;;9.95;4.63;;;14.20;99.90;;;14.36;100.00;101033.88;5200041;28;20048;-74
2022/09/12 04:52:54;;;;;;;10.20;4.70;;;14.20;99.90;;;14.34;100.00;101027.69;5184682;28;20042;-70
2022/09/12 04:55:28;;;;;;;12.52;4.97;;;14.20;99.90;;;14.33;100.00;101026.81;5184494;28;20384;-75
2022/09/12 04:58:01;;;;;;;11.70;5.35;;;14.20;99.90;;;14.36;100.00;101019.03;5184817;28;20038;-74
2022/09/12 05:00:34;;;;;;;8.43;4.60;;;14.20;99.90;;;14.40;100.00;101009.47;5184847;28;20054;-71
2022/09/12 05:03:07;;;;;;;9.90;4.60;;;14.20;99.90;;;14.42;100.00;101018.28;5199267;28;20050;-73
2022/09/12 05:05:39;;;;;;;10.32;4.75;;;14.30;99.90;;;14.44;100.00;101011.34;5200195;28;20390;-73
2022/09/12 05:08:12;;;;;;;10.02;4.82;;;14.30;99.90;;;14.45;100.00;101012.22;5185158;28;20046;-75
2022/09/12 05:10:45;;;;;;;8.52;3.90;;;14.30;99.90;;;14.45;100.00;101006.97;5185234;28;20100;-74
2022/09/12 05:13:17;;;;;;;10.40;4.57;;;14.30;99.90;;;14.44;100.00;101006.09;5184903;28;20433;-71
2022/09/12 05:15:55;;;;;;;10.23;4.68;;;14.30;99.90;;;14.42;100.00;101002.56;5184697;28;20430;-74
2022/09/12 05:18:29;;;;;;;9.27;4.47;;;14.30;99.90;;;14.43;100.00;101006.94;5184555;28;20483;-73
2022/09/12 05:21:03;;;;;;;9.65;4.70;;;14.30;99.90;;;14.44;100.00;101000.84;5199735;28;20046;-74
2022/09/12 05:23:36;;;;;;;9.05;4.40;;;14.30;99.90;;;14.46;100.00;101014.91;5184572;28;20415;-73
2022/09/12 05:26:15;;;;;;;9.50;4.60;;;14.30;99.90;;;14.49;100.00;101014.09;5184846;28;20429;-74
2022/09/12 05:28:48;;;;;;;9.43;4.35;;;14.30;99.90;;;14.50;100.00;101010.63;5184731;28;20046;-74
2022/09/12 05:31:22;;;;;;;9.02;4.20;;;;;;;14.52;100.00;101015.03;5184642;28;20049;-72
2022/09/12 05:33:56;;;;;;;9.52;4.38;;;;;;;14.55;100.00;101019.50;5184351;28;20133;-71
2022/09/12 05:36:30;;;;;;;7.88;4.30;;;;;;;14.56;100.00;101016.00;5184236;28;20535;-71
2022/09/12 05:39:03;;;;;;;10.23;4.57;;;;;;;14.57;100.00;101012.53;5184061;28;20050;-71
2022/09/12 05:41:37;;;;;;;10.10;4.85;;;;;;;14.62;100.00;101010.91;5182867;28;20045;-72
2022/09/12 05:44:12;;;;;;;9.40;4.93;;;;;;;14.67;100.00;101019.75;5184159;28;20422;-70
2022/09/12 05:46:49;;;;;;;9.52;4.80;;;;;;;14.71;100.00;101011.09;5184303;28;20049;-71
2022/09/12 05:49:22;;;;;;;8.27;3.90;;;;;;;14.76;100.00;101009.44;5183821;28;20042;-73
2022/09/12 05:51:54;;;;;;;10.25;4.32;;;;;;;14.82;100.00;101014.84;5184115;28;20042;-72
2022/09/12 05:54:27;;;;;;;10.63;4.47;;;;;;;14.88;100.00;101017.59;5269084;22;20139;-56
2022/09/12 05:57:01;;;;;;;9.45;4.32;;;;;;;14.95;100.00;101020.34;5204353;28;20468;-57
2022/09/12 05:59:34;;;;;;;8.15;4.10;;;;;;;15.03;100.00;101029.25;5204041;28;20042;-54
2022/09/12 06:02:06;;;;;;;9.40;4.70;;;;;;;15.11;100.00;101027.66;5203773;28;20053;-54
2022/09/12 06:04:40;;;;;;;10.63;4.95;;;;;;;15.18;100.00;101030.44;5203793;28;20044;-56
2022/09/12 06:07:13;;;;;;;10.90;4.78;;;;;;;15.25;100.00;101033.16;5203713;28;20052;-56
2022/09/12 06:09:46;;;;;;;8.60;4.05;;;;;;;15.32;100.00;101033.34;5202322;28;20050;-55
2022/09/12 06:12:20;;;;;;;9.68;4.03;;;;;;;15.40;100.00;101039.63;5203789;28;20049;-55
2022/09/12 06:14:52;;;;;;;10.40;4.47;;;;;;;15.50;100.00;101034.53;5207709;28;20053;-55
2022/09/12 06:17:25;;;;;;;10.90;4.72;;;;;;;15.62;100.00;101032.16;5206500;28;20164;-55
2022/09/12 06:19:57;;;;;;;11.05;5.18;;;;;;;15.83;100.00;101032.53;5207579;28;20379;-55
2022/09/12 06:22:30;;;;;;;9.93;5.20;;;;;;;16.06;100.00;101024.16;5208322;28;20088;-56
2022/09/12 06:25:03;;;;;;;12.23;5.10;;;;;;;16.27;100.00;101037.63;5207667;28;20129;-56
2022/09/12 06:27:37;;;;;;;11.40;5.15;;;;;;;16.43;100.00;101034.41;5209059;28;20263;-54
2022/09/12 06:30:11;;;;;;;10.18;4.75;;;;;;;16.60;100.00;101028.47;5208824;28;20045;-55
2022/09/12 06:32:43;;;;;;;13.00;6.10;;;;;;;16.84;100.00;101034.09;5208832;28;20510;-55
2022/09/12 06:35:16;;;;;;;11.25;5.40;;;;;;;17.13;100.00;101031.81;5208892;28;20041;-55
2022/09/12 06:37:48;;;;;;;10.05;5.05;;;;;;;17.41;100.00;101032.13;5207357;28;20053;-55
2022/09/12 06:40:21;;;;;;;10.40;4.68;;;;;;;17.61;100.00;101025.34;5208463;28;20048;-56
2022/09/12 06:42:54;;;;;;;11.02;5.07;;;;;;;17.85;100.00;101030.84;5208571;28;20041;-56
2022/09/12 06:45:37;;;;;;;10.45;4.95;;;;;;;18.11;100.00;101032.81;5207200;28;20137;-56
2022/09/12 06:48:10;;;;;;;9.70;4.78;;;;;;;18.39;100.00;101033.91;5207607;28;20510;-55
2022/09/12 06:50:42;;;;;;;7.88;4.13;;;;;;;18.59;100.00;101045.47;5207245;28;20033;-55
2022/09/12 06:53:15;;;;;;;9.50;4.53;;;;;;;18.74;100.00;101046.47;5206930;28;20064;-54
2022/09/12 06:55:47;;;;;;;9.52;4.57;;;;;;;18.90;100.00;101045.66;5207043;28;20128;-56
2022/09/12 06:58:21;;;;;;;8.13;4.30;;;;;;;19.00;100.00;101047.47;5207451;28;20172;-55
2022/09/12 07:01:01;;;;;;;9.45;4.30;;;;;;;19.08;100.00;101042.22;5206797;28;20410;-54
2022/09/12 07:03:34;;;;;;;8.30;4.15;;;;;;;19.20;100.00;101043.16;5206968;28;20049;-54
2022/09/12 07:06:09;;;;;;;7.80;4.13;;;;;;;19.16;100.00;101046.66;5206837;28;20049;-55
2022/09/12 07:08:42;;;;;;;7.75;3.63;;;;;;;19.17;100.00;101048.44;5206790;28;20115;-56
2022/09/12 07:11:16;;;;;;;8.70;4.18;;;;;;;19.21;100.00;101050.19;5206494;28;20041;-54
2022/09/12 07:13:51;;;;;;;7.70;3.72;;;;;;;19.23;100.00;101040.53;5206685;28;20383;-55
2022/09/12 07:16:23;;;;;;;10.65;4.57;;;;;;;19.17;100.00;101043.16;5206552;28;20096;-54
2022/09/12 07:18:57;;;;;;;8.23;4.00;;;;;;;19.08;100.00;101045.75;5206509;28;20522;-57
2022/09/12 07:21:29;;;;;;;8.15;4.43;;;;;;;19.02;100.00;101036.91;5206818;28;20091;-56
2022/09/12 07:24:02;;;;;;;8.13;4.07;;;;;;;19.02;100.00;101043.06;5204593;28;20570;-55
2022/09/12 07:26:35;;;;;;;8.20;3.83;;;;;;;18.99;100.00;101048.34;5206370;28;20463;-55
2022/09/12 07:29:14;;;;;;;7.45;4.22;;;;;;;19.03;100.00;101058.03;5206157;28;20405;-55
2022/09/12 07:31:47;;;;;;;7.38;3.95;;;;;;;19.20;100.00;101052.84;5206661;28;20049;-56
2022/09/12 07:34:20;;;;;;;8.70;4.63;;;;;;;19.37;100.00;101058.19;5206301;28;20543;-56
2022/09/12 07:36:53;;;;;;;8.30;4.30;;;;;;;19.45;100.00;101051.16;5206259;28;20049;-55
2022/09/12 07:39:25;;;;;;;8.75;4.13;;;;;;;19.52;100.00;101053.81;5205959;28;20150;-55
2022/09/12 07:41:59;;;;;;;8.63;4.03;;;;;;;19.58;100.00;101047.69;5206002;28;20049;-54
2022/09/12 07:44:32;;;;;;;7.55;4.18;;;;;;;19.61;100.00;101044.16;5206109;28;20045;-55
2022/09/12 07:47:05;;;;;;;9.15;4.53;;;;;;;19.67;100.00;101039.75;5206141;28;20325;-56
2022/09/12 07:49:38;;;;;;;7.78;3.75;;;;;;;19.73;100.00;101038.91;5206039;28;20045;-56
2022/09/12 07:52:10;;;;;;;6.43;3.67;;;;;;;19.75;100.00;101045.94;5206281;28;20053;-55
2022/09/12 07:54:43;;;;;;;7.65;3.88;;;;;;;19.82;100.00;101043.31;5206217;28;20050;-58
2022/09/12 07:57:16;;;;;;;6.95;3.45;;;;;;;19.89;100.00;101040.69;5204559;28;20056;-56
2022/09/12 07:59:50;;;;;;;7.78;3.58;;;;;;;20.01;100.00;101051.25;5206183;28;20128;-54
2022/09/12 08:02:23;;;;;;;7.55;4.40;;;;;;;20.20;100.00;101054.78;5205800;28;20055;-55
2022/09/12 08:04:55;;;;;;;8.75;4.07;;;;;;;20.44;100.00;101053.00;5206149;28;20056;-55
2022/09/12 08:07:28;;;;;;;7.65;4.13;;;;;;;20.70;100.00;101056.50;5205874;28;20575;-55
2022/09/12 08:10:01;;;;;;;6.85;3.63;;;;;;;20.95;100.00;101048.50;5205757;28;20091;-56
2022/09/12 08:12:37;;;;;;;7.13;3.80;;;;;;;20.99;98.97;101045.81;5205987;28;20052;-55
2022/09/12 08:15:11;;;;;;;7.30;3.85;;;;;;;20.93;98.68;101045.84;5206198;28;20049;-57
2022/09/12 08:17:44;;;;;;;8.20;4.35;;;;;;;20.95;99.04;101049.38;5205575;28;20042;-56
2022/09/12 08:20:17;;;;;;;8.00;3.90;;;;;;;21.29;99.02;101058.09;5205877;28;20041;-56
2022/09/12 08:22:50;;;;;;;6.70;3.90;;;;;;;21.83;97.12;101050.66;5205654;28;20057;-55
2022/09/12 08:25:23;;;;;;;8.02;3.78;;;;;;;22.37;94.61;101053.78;5205252;28;20080;-55
2022/09/12 08:27:55;;;;;;;7.57;4.18;;;;;;;22.85;90.95;101043.53;5203936;28;20045;-54
2022/09/12 08:30:29;;;;;;;7.03;3.78;;;;;;;23.00;89.95;101032.75;5205124;28;20494;-56
2022/09/12 08:33:02;;;;;;;6.22;3.30;;;;;;;23.08;90.07;101039.72;5205362;28;20052;-56
2022/09/12 08:35:34;;;;;;;6.53;3.42;;;;;;;23.01;89.58;101045.13;5204835;28;20049;-55
2022/09/12 08:38:06;;;;;;;6.55;3.30;;;;;;;22.91;89.55;101042.63;5205164;28;20410;-54
2022/09/12 08:40:47;;;;;;;8.00;4.35;;;;;;;22.73;89.81;101048.97;5205159;28;20037;-56
2022/09/12 08:43:30;;;;;;;6.07;2.95;;;;;;;22.63;90.57;101045.56;5205138;28;20041;-55
2022/09/12 08:46:09;;;;;;;4.90;3.00;;;;;;;22.75;90.65;101052.50;5205193;28;20057;-55
2022/09/12 08:48:42;;;;;;;6.28;3.30;;;;;;;22.93;90.18;101049.66;5205808;28;20518;-56
2022/09/12 08:51:17;;;;;;;7.20;3.42;;;;;;;23.26;89.17;101043.03;5204765;28;20042;-55
2022/09/12 08:53:53;;;;;;;5.93;3.25;;;;;;;23.53;87.83;101052.41;5204992;28;20053;-55
2022/09/12 08:56:27;;;;;;;6.68;3.38;;;;;;;23.63;86.84;101044.34;5204510;28;20525;-55
2022/09/12 08:59:00;;;;;;;6.43;3.25;;;;;;;23.67;86.42;101044.28;5204639;28;20049;-56
2022/09/12 09:01:37;;;;;;;6.28;3.30;;;;;;;23.62;86.98;101045.25;5204517;28;20041;-55
2022/09/12 09:04:37;;;;;;;7.07;3.33;;;;;;;23.66;87.25;101039.84;5204586;28;20068;-55
2022/09/12 09:07:28;;;;;;;5.75;3.20;;;;;;;23.79;87.18;101035.19;5204635;28;20095;-56
2022/09/12 09:10:12;;;;;;;4.93;3.17;;;;;;;23.88;87.22;101040.41;5203180;28;20123;-55
2022/09/12 09:12:51;;;;;;;6.30;3.20;;;;;;;24.05;86.74;101038.31;5204602;28;20076;-56
2022/09/12 09:15:44;;;;;;;8.52;3.22;;;;;;;24.27;86.53;101035.31;5204831;28;20518;-56
2022/09/12 09:18:21;;;;;;;5.50;3.30;;;;;;;24.47;85.86;101034.97;5205249;28;20049;-55
2022/09/12 09:20:57;;;;;;;5.60;3.40;;;;;;;24.60;84.46;101028.50;5204531;28;20042;-56
2022/09/12 09:23:33;;;;;;;6.20;3.38;;;;;;;24.72;84.30;101014.94;5205254;28;20107;-55
2022/09/12 09:26:09;;;;;;;7.05;3.45;;;;;;;24.85;84.30;101019.09;5204738;28;20050;-55
2022/09/12 09:28:45;;;;;;;5.50;3.17;;;;;;;25.02;83.38;101013.41;5204897;28;20344;-55
2022/09/12 09:31:22;;;;;;;5.70;3.20;;;24.30;93.70;;;25.18;83.48;101011.34;5204873;28;20115;-55
2022/09/12 09:33:56;;;;;;;5.22;2.78;;;24.30;93.80;;;25.38;83.15;101010.88;5204601;28;20037;-56
2022/09/12 09:36:46;;;;;;;5.03;3.05;;;24.50;93.70;;;25.63;82.13;101001.38;5204648;28;20045;-55
2022/09/12 09:39:29;;;;;;;6.30;3.63;;;24.70;93.30;;;25.78;80.18;101001.97;5204456;28;20064;-54
2022/09/12 09:42:24;;;;;;;4.78;3.17;;;24.90;92.30;;;25.83;80.07;101005.41;5204603;28;20450;-57
2022/09/12 09:45:00;;;;;;;4.63;3.17;;;25.00;92.00;;;25.95;79.59;100997.94;5204409;28;20049;-54
2022/09/12 09:47:33;;;;;;;4.25;2.80;;;25.10;91.80;;;26.08;78.98;101000.28;5203983;28;20156;-54
2022/09/12 09:50:15;;;;;;;5.80;3.30;;;25.20;91.40;;;26.13;77.17;101004.59;5204496;28;20163;-55
2022/09/12 09:52:49;;;;;;;5.38;3.50;;;25.30;90.50;;;26.04;77.21;100999.50;5204554;28;20061;-55
2022/09/12 09:55:28;;;;;;;5.15;3.10;;;25.30;90.30;;;25.98;76.31;100992.53;5204213;28;20051;-56
2022/09/12 09:58:02;;;;;;;5.53;3.28;;;25.20;89.50;;;26.01;75.91;100985.34;5204571;28;20144;-54
2022/09/12 10:00:36;;;;;;;4.72;2.97;;;25.20;89.00;;;26.02;75.81;100990.66;5204294;28;20143;-55
2022/09/12 10:03:32;;;;;;;5.85;3.13;;;25.20;88.30;;;26.02;75.44;100979.97;5204298;28;20459;-56
2022/09/12 10:06:24;;;;;;;6.00;3.17;;;25.20;87.90;;;26.11;75.64;100977.06;5204399;28;20119;-54
2022/09/12 10:09:07;;;;;;;4.15;2.50;;;25.30;88.00;;;26.19;75.78;100983.06;5204344;28;20498;-56
2022/09/12 10:11:40;;;;;;;5.07;3.08;;;25.40;87.80;;;26.35;76.43;100978.19;5204564;28;20517;-57
2022/09/12 10:14:38;;;;;;;4.88;2.80;;;25.50;88.30;;;26.46;75.79;100975.25;5204069;28;20498;-55
2022/09/12 10:17:28;;;;;;;4.20;2.65;;;25.60;87.50;;;26.50;75.45;100967.09;5204143;28;20418;-57
2022/09/12 10:20:00;;;;;;;4.80;2.70;;;25.70;86.70;;;26.55;74.92;100969.66;5204106;28;20388;-56
2022/09/12 10:22:33;;;;;;;3.40;2.42;;;25.70;86.00;;;26.60;73.85;100970.38;5204468;28;20046;-55
2022/09/12 10:25:15;;;;;;;3.13;2.35;;;25.80;85.00;;;26.79;71.61;100971.59;5204150;28;20061;-56
2022/09/12 10:27:55;;;;;;;3.88;2.40;;;25.90;82.40;;;26.97;70.82;100958.59;5204016;28;20132;-54
2022/09/12 10:30:28;;;;;;;4.35;2.58;;;26.00;81.40;;;27.15;70.30;100965.22;5203930;28;20081;-56
2022/09/12 10:33:11;;;;;;;4.03;2.67;;;26.20;80.40;;;27.19;70.55;100953.47;5204362;28;20045;-55
2022/09/12 10:35:50;;;;;;;3.83;2.28;;;26.20;80.10;;;27.23;67.60;100945.31;5204102;28;20125;-57
2022/09/12 10:38:27;;;;;;;4.85;2.60;;;26.30;77.40;;;27.20;68.57;100939.22;5202797;28;20508;-56
2022/09/12 10:41:03;;;;;;;4.07;2.40;;;26.30;77.20;;;27.21;68.54;100939.16;5204181;28;20402;-55
2022/09/12 10:43:38;;;;;;;4.15;2.50;;;26.30;76.90;;;27.17;66.82;100953.53;5203707;28;20046;-56
2022/09/12 10:46:29;;;;;;;3.00;2.33;;;26.30;74.80;;;27.16;67.01;100949.13;5203795;28;20053;-56
2022/09/12 10:49:28;;;;;;;4.25;2.20;;;26.30;74.70;;;27.24;66.12;100931.00;5203657;28;20057;-55
2022/09/12 10:52:20;;;;;;;3.13;2.47;;;26.40;73.80;;;27.34;66.19;100936.09;5204203;28;20413;-55
2022/09/12 10:54:54;;;;;;;3.50;2.22;;;26.40;73.60;;;27.44;66.06;100938.41;5203544;28;20050;-55
2022/09/12 10:57:54;;;;;;;4.25;2.17;;;26.50;73.10;;;27.45;66.65;100933.91;5203655;28;20049;-56
2022/09/12 11:00:29;;;;;;;3.17;2.33;;;26.60;73.20;;;27.43;65.14;100931.28;5205233;28;20049;-55
2022/09/12 11:03:16;;;;;;;2.78;2.15;;;26.60;71.60;;;27.42;64.89;100928.69;5207591;28;20049;-55
2022/09/12 11:05:56;;;;;;;3.25;1.83;;;26.60;71.30;;;27.34;64.61;100915.53;5207183;28;20033;-57
2022/09/12 11:08:52;;;;;;;2.55;2.05;;;26.50;70.60;;;27.35;65.43;100922.66;5207529;28;20076;-55